createdAt,value
2022-07-27T00:01:14.956Z,53.70
2022-07-27T00:03:44.662Z,53.60
2022-07-27T00:06:14.486Z,53.60
2022-07-27T00:08:42.686Z,53.60
2022-07-27T00:11:11.632Z,53.60
2022-07-27T00:13:40.767Z,53.60
2022-07-27T00:16:09.129Z,53.60
2022-07-27T00:18:37.394Z,53.50
2022-07-27T00:21:05.582Z,53.60
2022-07-27T00:23:35.147Z,53.50
2022-07-27T00:26:03.386Z,53.50
2022-07-27T00:28:31.597Z,53.50
2022-07-27T00:30:59.884Z,53.60
2022-07-27T00:33:28.198Z,53.60
2022-07-27T00:35:56.341Z,54.20
2022-07-27T00:38:25.132Z,53.60
2022-07-27T00:40:54.764Z,53.60
2022-07-27T00:43:22.987Z,53.60
2022-07-27T00:45:51.474Z,53.60
2022-07-27T00:48:19.854Z,53.70
2022-07-27T00:50:49.003Z,53.60
2022-07-27T00:53:17.840Z,53.60
2022-07-27T00:55:46.662Z,53.60
2022-07-27T00:58:16.260Z,53.60
2022-07-27T01:00:44.581Z,53.60
2022-07-27T01:03:12.838Z,53.60
2022-07-27T01:05:44.908Z,53.60
2022-07-27T01:08:15.153Z,53.60
2022-07-27T01:10:44.409Z,53.60
2022-07-27T01:13:13.475Z,53.50
2022-07-27T01:15:44.435Z,53.50
2022-07-27T01:18:14.606Z,53.50
2022-07-27T01:20:43.839Z,53.50
2022-07-27T01:23:13.312Z,53.50
2022-07-27T01:25:44.622Z,53.50
2022-07-27T01:28:12.753Z,53.50
2022-07-27T01:30:40.887Z,53.60
2022-07-27T01:33:10.672Z,53.50
2022-07-27T01:35:40.490Z,53.50
2022-07-27T01:38:12.016Z,53.60
2022-07-27T01:40:41.568Z,53.60
2022-07-27T01:43:09.719Z,53.60
2022-07-27T01:45:37.888Z,53.50
2022-07-27T01:48:06.732Z,53.50
2022-07-27T01:50:35.418Z,53.50
2022-07-27T01:53:03.717Z,53.50
2022-07-27T01:55:37.896Z,53.50
2022-07-27T01:58:09.340Z,53.60
2022-07-27T02:00:38.444Z,53.50
2022-07-27T02:03:08.977Z,53.50
2022-07-27T02:05:39.216Z,53.40
2022-07-27T02:08:09.273Z,53.40
2022-07-27T02:10:58.904Z,53.40
2022-07-27T02:13:28.329Z,53.40
2022-07-27T02:15:57.035Z,53.40
2022-07-27T02:18:33.690Z,53.40
2022-07-27T02:21:06.383Z,53.40
2022-07-27T02:23:35.959Z,53.40
2022-07-27T02:26:05.349Z,53.40
2022-07-27T02:28:35.049Z,53.50
2022-07-27T02:31:03.592Z,53.50
2022-07-27T02:33:31.681Z,53.60
2022-07-27T02:35:59.948Z,53.50
2022-07-27T02:38:28.258Z,53.60
2022-07-27T02:40:56.415Z,53.60
2022-07-27T02:43:24.590Z,53.60
2022-07-27T02:45:54.181Z,53.60
2022-07-27T02:48:22.489Z,53.70
2022-07-27T02:50:50.727Z,53.60
2022-07-27T02:53:18.883Z,53.60
2022-07-27T02:55:47.055Z,53.50
2022-07-27T02:58:15.199Z,53.50
2022-07-27T03:00:43.509Z,53.50
2022-07-27T03:03:13.042Z,53.50
2022-07-27T03:05:41.241Z,54.00
2022-07-27T03:08:09.607Z,53.40
2022-07-27T03:10:37.931Z,53.40
2022-07-27T03:13:06.880Z,53.40
2022-07-27T03:15:35.372Z,54.00
2022-07-27T03:18:03.763Z,53.40
2022-07-27T03:20:33.569Z,53.40
2022-07-27T03:23:02.242Z,53.40
2022-07-27T03:25:30.656Z,53.40
2022-07-27T03:28:03.800Z,53.50
2022-07-27T03:30:32.953Z,53.40
2022-07-27T03:33:01.289Z,53.40
2022-07-27T03:35:29.549Z,53.40
2022-07-27T03:37:59.067Z,53.40
2022-07-27T03:40:29.274Z,53.40
2022-07-27T03:42:57.517Z,53.40
2022-07-27T03:45:26.058Z,53.40
2022-07-27T03:47:54.443Z,54.00
2022-07-27T03:50:22.954Z,53.40
2022-07-27T03:52:51.798Z,53.50
2022-07-27T03:55:21.634Z,53.40
2022-07-27T03:57:50.852Z,53.50
2022-07-27T04:00:19.646Z,53.40
2022-07-27T04:02:48.064Z,53.30
2022-07-27T04:05:16.336Z,53.30
2022-07-27T04:07:44.653Z,53.30
2022-07-27T04:10:12.926Z,53.30
2022-07-27T04:12:43.589Z,53.40
2022-07-27T04:15:14.908Z,53.30
2022-07-27T04:17:56.195Z,53.30
2022-07-27T04:20:25.983Z,53.60
2022-07-27T04:22:54.269Z,53.40
2022-07-27T04:25:22.890Z,53.40
2022-07-27T04:27:54.500Z,53.50
2022-07-27T04:30:23.356Z,53.40
2022-07-27T04:32:51.795Z,53.40
2022-07-27T04:35:25.911Z,53.90
2022-07-27T04:37:59.231Z,53.40
2022-07-27T04:40:32.842Z,53.40
2022-07-27T04:43:04.172Z,53.40
2022-07-27T04:45:32.538Z,53.20
2022-07-27T04:48:00.820Z,53.20
2022-07-27T04:50:28.977Z,53.30
2022-07-27T04:52:59.709Z,53.30
2022-07-27T04:55:27.870Z,53.20
2022-07-27T04:57:56.023Z,53.20
2022-07-27T05:00:25.632Z,53.20
2022-07-27T05:02:53.781Z,53.20
2022-07-27T05:05:22.181Z,53.20
2022-07-27T05:07:50.239Z,53.30
2022-07-27T05:10:20.568Z,53.30
2022-07-27T05:12:50.388Z,53.30
2022-07-27T05:15:19.023Z,53.30
2022-07-27T05:17:48.793Z,53.30
2022-07-27T05:20:17.332Z,53.30
2022-07-27T05:22:45.632Z,53.30
2022-07-27T05:25:13.861Z,53.20
2022-07-27T05:27:54.105Z,53.30
2022-07-27T05:30:24.639Z,53.30
2022-07-27T05:32:54.680Z,53.20
2022-07-27T05:35:23.629Z,53.30
2022-07-27T05:37:51.769Z,53.30
2022-07-27T05:40:19.908Z,53.30
2022-07-27T05:42:48.145Z,53.30
2022-07-27T05:45:16.769Z,53.30
2022-07-27T05:47:45.116Z,53.20
2022-07-27T05:50:15.206Z,53.20
2022-07-27T05:52:44.326Z,53.20
2022-07-27T05:55:13.133Z,53.10
2022-07-27T05:57:42.151Z,53.10
2022-07-27T06:00:12.531Z,53.10
2022-07-27T06:02:41.329Z,53.10
2022-07-27T06:05:15.674Z,53.10
2022-07-27T06:08:06.419Z,53.10
2022-07-27T06:10:36.498Z,53.20
2022-07-27T06:13:06.995Z,53.20
2022-07-27T06:15:35.970Z,53.20
2022-07-27T06:18:06.729Z,53.80
2022-07-27T06:20:34.885Z,53.20
2022-07-27T06:23:08.069Z,53.30
2022-07-27T06:25:37.365Z,53.20
2022-07-27T06:28:06.489Z,53.20
2022-07-27T06:30:34.978Z,53.30
2022-07-27T06:33:04.760Z,53.20
2022-07-27T06:35:33.892Z,53.10
2022-07-27T06:38:02.768Z,53.20
2022-07-27T06:40:33.189Z,53.10
2022-07-27T06:43:01.733Z,53.10
2022-07-27T06:45:30.122Z,53.10
2022-07-27T06:47:58.321Z,53.10
2022-07-27T06:50:26.905Z,53.10
2022-07-27T06:52:55.010Z,53.10
2022-07-27T06:55:23.188Z,53.20
2022-07-27T06:57:52.713Z,53.10
2022-07-27T07:00:21.006Z,53.10
2022-07-27T07:02:54.852Z,53.20
2022-07-27T07:05:24.070Z,53.20
2022-07-27T07:07:52.295Z,53.10
2022-07-27T07:10:23.707Z,53.10
2022-07-27T07:12:55.790Z,53.10
2022-07-27T07:15:25.574Z,53.10
2022-07-27T07:17:54.233Z,53.10
2022-07-27T07:20:23.307Z,53.10
2022-07-27T07:22:51.826Z,53.10
2022-07-27T07:25:20.074Z,53.10
2022-07-27T07:27:48.381Z,53.10
2022-07-27T07:30:18.233Z,53.10
2022-07-27T07:32:46.610Z,53.10
2022-07-27T07:35:15.063Z,53.20
2022-07-27T07:37:43.433Z,53.10
2022-07-27T07:40:41.298Z,53.10
2022-07-27T07:43:03.095Z,53.00
2022-07-27T07:45:37.932Z,53.10
2022-07-27T07:48:07.611Z,53.00
2022-07-27T07:50:36.789Z,53.00
2022-07-27T07:53:05.061Z,53.00
2022-07-27T07:55:33.415Z,53.00
2022-07-27T07:58:02.124Z,53.00
2022-07-27T08:00:31.905Z,53.10
2022-07-27T08:03:00.130Z,53.00
2022-07-27T08:05:28.982Z,53.00
2022-07-27T08:07:57.120Z,53.00
2022-07-27T08:10:25.663Z,53.10
2022-07-27T08:12:56.470Z,53.10
2022-07-27T08:15:35.225Z,53.10
2022-07-27T08:18:06.681Z,53.10
2022-07-27T08:20:35.431Z,53.10
2022-07-27T08:23:04.041Z,53.10
2022-07-27T08:25:32.608Z,53.10
2022-07-27T08:28:02.763Z,53.10
2022-07-27T08:30:33.056Z,53.10
2022-07-27T08:33:04.041Z,53.00
2022-07-27T08:35:35.787Z,53.10
2022-07-27T08:38:06.159Z,53.10
2022-07-27T08:40:41.173Z,53.60
2022-07-27T08:43:12.921Z,53.00
2022-07-27T08:45:44.167Z,53.10
2022-07-27T08:48:14.698Z,53.10
2022-07-27T08:50:44.805Z,53.00
2022-07-27T08:53:14.522Z,53.00
2022-07-27T08:55:44.872Z,53.00
2022-07-27T08:58:14.311Z,53.10
2022-07-27T09:00:46.862Z,53.00
2022-07-27T09:03:19.431Z,53.00
2022-07-27T09:05:52.349Z,53.00
2022-07-27T09:08:24.416Z,53.00
2022-07-27T09:10:55.171Z,53.10
2022-07-27T09:13:26.664Z,53.10
2022-07-27T09:18:46.644Z,53.10
2022-07-27T09:21:19.914Z,53.00
2022-07-27T09:23:50.410Z,53.00
2022-07-27T09:26:32.901Z,53.10
2022-07-27T09:29:05.991Z,53.10
2022-07-27T09:31:41.687Z,53.10
2022-07-27T09:34:11.348Z,53.00
2022-07-27T09:36:54.123Z,53.00
2022-07-27T09:39:24.701Z,53.00
2022-07-27T09:41:55.584Z,52.90
2022-07-27T09:44:43.703Z,53.00
2022-07-27T09:47:26.329Z,53.00
2022-07-27T09:49:57.895Z,53.00
2022-07-27T09:52:31.484Z,53.00
2022-07-27T09:55:05.628Z,53.00
2022-07-27T09:57:53.399Z,53.00
2022-07-27T10:00:22.999Z,53.00
2022-07-27T10:02:52.532Z,53.00
2022-07-27T10:05:22.818Z,53.10
2022-07-27T10:07:55.759Z,53.10
2022-07-27T10:10:25.175Z,53.10
2022-07-27T10:12:55.400Z,53.10
2022-07-27T10:15:25.354Z,53.10
2022-07-27T10:18:03.481Z,53.10
2022-07-27T10:20:41.640Z,53.10
2022-07-27T10:23:27.370Z,53.10
2022-07-27T10:26:21.590Z,53.10
2022-07-27T10:28:55.643Z,53.00
2022-07-27T10:31:27.077Z,53.10
2022-07-27T10:33:57.392Z,53.00
2022-07-27T10:36:52.683Z,53.00
2022-07-27T10:39:40.363Z,53.00
2022-07-27T10:42:29.745Z,53.00
2022-07-27T10:45:05.831Z,53.00
2022-07-27T10:47:38.797Z,53.10
2022-07-27T10:50:33.353Z,53.10
2022-07-27T10:53:05.982Z,53.10
2022-07-27T10:55:50.708Z,53.10
2022-07-27T10:58:51.513Z,53.00
2022-07-27T11:01:22.469Z,53.00
2022-07-27T11:03:55.286Z,53.10
2022-07-27T11:06:47.846Z,53.00
2022-07-27T11:10:02.489Z,53.10
2022-07-27T11:12:13.677Z,53.10
2022-07-27T11:14:48.464Z,53.10
2022-07-27T11:20:08.348Z,53.10
2022-07-27T11:23:26.482Z,53.10
2022-07-27T11:25:27.547Z,53.10
2022-07-27T11:27:57.159Z,53.10
2022-07-27T11:30:28.169Z,53.00
2022-07-27T11:32:57.303Z,53.00
2022-07-27T11:35:25.672Z,52.90
2022-07-27T11:38:05.880Z,52.90
2022-07-27T11:43:38.272Z,53.00
2022-07-27T11:46:20.640Z,53.00
2022-07-27T11:49:06.608Z,53.00
2022-07-27T11:51:36.964Z,53.00
2022-07-27T11:54:07.416Z,53.00
2022-07-27T11:56:38.277Z,53.10
2022-07-27T11:59:15.738Z,53.10
2022-07-27T12:01:48.902Z,53.10
2022-07-27T12:04:21.601Z,53.10
2022-07-27T12:07:08.050Z,53.10
2022-07-27T12:09:39.196Z,53.10
2022-07-27T12:12:15.975Z,53.10
2022-07-27T12:14:48.753Z,53.10
2022-07-27T12:17:29.666Z,53.10
2022-07-27T12:20:01.891Z,53.10
2022-07-27T12:22:37.551Z,53.10
2022-07-27T12:25:16.734Z,53.10
2022-07-27T12:27:56.694Z,53.10
2022-07-27T12:30:34.245Z,53.10
2022-07-27T12:33:04.347Z,53.00
2022-07-27T12:35:45.857Z,53.00
2022-07-27T12:38:14.796Z,53.10
2022-07-27T12:40:49.504Z,53.00
2022-07-27T12:43:19.944Z,53.00
2022-07-27T12:45:52.281Z,53.10
2022-07-27T12:48:25.321Z,53.10
2022-07-27T12:51:01.647Z,53.10
2022-07-27T12:53:30.936Z,53.10
2022-07-27T12:56:02.542Z,53.10
2022-07-27T12:58:30.686Z,53.10
2022-07-27T13:01:00.814Z,53.10
2022-07-27T13:03:29.123Z,53.10
2022-07-27T13:05:57.403Z,53.10
2022-07-27T13:08:25.542Z,53.10
2022-07-27T13:10:53.794Z,53.10
2022-07-27T13:13:24.433Z,53.10
2022-07-27T13:15:53.858Z,53.10
2022-07-27T13:18:24.098Z,53.10
2022-07-27T13:20:52.723Z,53.10
2022-07-27T13:23:21.347Z,53.10
2022-07-27T13:25:49.987Z,53.00
2022-07-27T13:28:18.288Z,52.90
2022-07-27T13:30:46.499Z,53.00
2022-07-27T13:33:14.674Z,53.00
2022-07-27T13:35:45.159Z,53.00
2022-07-27T13:38:16.806Z,53.00
2022-07-27T13:40:45.376Z,53.00
2022-07-27T13:43:13.541Z,53.00
2022-07-27T13:45:43.288Z,53.00
2022-07-27T13:48:13.081Z,53.00
2022-07-27T13:50:42.936Z,53.00
2022-07-27T13:53:15.155Z,53.10
2022-07-27T13:55:44.672Z,53.10
2022-07-27T13:58:12.960Z,53.10
2022-07-27T14:00:41.650Z,53.10
2022-07-27T14:03:11.305Z,53.10
2022-07-27T14:05:43.057Z,53.10
2022-07-27T14:08:20.985Z,53.10
2022-07-27T14:10:49.195Z,53.10
2022-07-27T14:13:21.635Z,53.20
2022-07-27T14:15:54.991Z,53.10
2022-07-27T14:18:25.800Z,53.10
2022-07-27T14:20:54.644Z,53.20
2022-07-27T14:23:25.135Z,53.10
2022-07-27T14:25:55.090Z,53.00
2022-07-27T14:28:24.779Z,53.00
2022-07-27T14:30:54.456Z,53.10
2022-07-27T14:33:23.006Z,53.10
2022-07-27T14:35:51.383Z,53.10
2022-07-27T14:38:25.180Z,53.10
2022-07-27T14:41:01.573Z,53.10
2022-07-27T14:43:30.508Z,53.20
2022-07-27T14:45:59.158Z,53.10
2022-07-27T14:49:02.898Z,53.10
2022-07-27T14:51:16.569Z,53.10
2022-07-27T14:53:44.787Z,53.10
2022-07-27T14:56:14.503Z,53.20
2022-07-27T14:58:42.750Z,53.10
2022-07-27T15:01:11.022Z,53.10
2022-07-27T15:03:39.225Z,53.10
2022-07-27T15:06:07.365Z,53.10
2022-07-27T15:08:35.623Z,53.20
2022-07-27T15:11:03.821Z,53.10
2022-07-27T15:13:34.032Z,53.10
2022-07-27T15:16:03.085Z,53.00
2022-07-27T15:18:36.392Z,53.10
2022-07-27T15:21:12.457Z,53.10
2022-07-27T15:23:43.835Z,53.00
2022-07-27T15:26:12.959Z,53.10
2022-07-27T15:28:43.662Z,53.20
2022-07-27T15:31:13.472Z,53.10
2022-07-27T15:33:42.003Z,53.10
2022-07-27T15:36:11.595Z,53.10
2022-07-27T15:39:00.076Z,53.10
2022-07-27T15:41:28.378Z,53.10
2022-07-27T15:44:00.130Z,53.10
2022-07-27T15:46:28.549Z,53.10
2022-07-27T15:48:57.027Z,53.10
2022-07-27T15:51:25.343Z,53.10
2022-07-27T15:53:53.692Z,53.10
2022-07-27T15:56:21.923Z,53.20
2022-07-27T15:58:50.227Z,53.20
2022-07-27T16:01:21.197Z,53.20
2022-07-27T16:03:50.134Z,53.20
2022-07-27T16:06:19.939Z,53.20
2022-07-27T16:08:48.709Z,53.20
2022-07-27T16:11:16.957Z,53.10
2022-07-27T16:13:45.255Z,53.10
2022-07-27T16:16:31.075Z,53.00
2022-07-27T16:19:12.952Z,53.00
2022-07-27T16:21:54.371Z,53.10
2022-07-27T16:24:24.889Z,53.00
2022-07-27T16:26:53.164Z,53.10
2022-07-27T16:29:21.510Z,53.10
2022-07-27T16:31:49.825Z,53.10
2022-07-27T16:34:19.418Z,53.10
2022-07-27T16:36:48.990Z,53.20
2022-07-27T16:39:17.307Z,53.10
2022-07-27T16:41:47.150Z,53.20
2022-07-27T16:44:15.566Z,53.10
2022-07-27T16:46:44.062Z,53.10
2022-07-27T16:49:12.670Z,53.10
2022-07-27T16:51:42.527Z,53.10
2022-07-27T16:54:10.987Z,53.10
2022-07-27T16:56:39.077Z,53.10
2022-07-27T16:59:07.247Z,53.20
2022-07-27T17:01:35.580Z,53.10
2022-07-27T17:04:03.833Z,53.10
2022-07-27T17:06:32.528Z,53.10
2022-07-27T17:09:03.239Z,53.10
2022-07-27T17:11:31.582Z,53.00
2022-07-27T17:14:07.015Z,53.00
2022-07-27T17:16:36.332Z,53.00
2022-07-27T17:19:04.521Z,53.10
2022-07-27T17:21:32.938Z,53.00
2022-07-27T17:24:02.908Z,53.00
2022-07-27T17:26:31.390Z,53.00
2022-07-27T17:28:59.859Z,52.90
2022-07-27T17:31:28.754Z,53.00
2022-07-27T17:33:57.434Z,53.60
2022-07-27T17:36:26.402Z,53.00
2022-07-27T17:38:54.795Z,53.00
2022-07-27T17:41:25.501Z,53.10
2022-07-27T17:43:54.524Z,53.10
2022-07-27T17:46:24.437Z,53.20
2022-07-27T17:48:53.776Z,53.20
2022-07-27T17:51:25.133Z,53.20
2022-07-27T17:53:53.593Z,53.20
2022-07-27T17:56:23.196Z,53.20
2022-07-27T17:58:51.429Z,53.20
2022-07-27T18:01:46.652Z,53.20
2022-07-27T18:04:07.943Z,53.20
2022-07-27T18:06:36.539Z,53.10
2022-07-27T18:09:06.870Z,53.10
2022-07-27T18:11:36.925Z,53.00
2022-07-27T18:14:05.124Z,53.10
2022-07-27T18:16:38.172Z,53.00
2022-07-27T18:19:08.719Z,53.00
2022-07-27T18:21:37.705Z,53.10
2022-07-27T18:24:06.479Z,53.10
2022-07-27T18:26:40.108Z,53.10
2022-07-27T18:29:08.583Z,53.10
2022-07-27T18:31:37.192Z,53.10
2022-07-27T18:34:10.631Z,53.00
2022-07-27T18:36:42.304Z,53.00
2022-07-27T18:39:10.796Z,53.00
2022-07-27T18:41:40.674Z,53.00
2022-07-27T18:44:08.978Z,53.10
2022-07-27T18:46:37.283Z,53.10
2022-07-27T18:49:05.552Z,53.10
2022-07-27T18:51:35.612Z,53.10
2022-07-27T18:54:05.634Z,53.20
2022-07-27T18:56:33.854Z,53.10
2022-07-27T18:59:03.340Z,53.10
2022-07-27T19:01:31.526Z,53.10
2022-07-27T19:03:59.788Z,53.00
2022-07-27T19:06:30.180Z,53.50
2022-07-27T19:08:58.821Z,53.00
2022-07-27T19:11:27.148Z,53.00
2022-07-27T19:13:57.778Z,53.00
2022-07-27T19:16:27.628Z,53.10
2022-07-27T19:18:55.996Z,53.00
2022-07-27T19:21:24.281Z,53.10
2022-07-27T19:23:52.453Z,53.00
2022-07-27T19:26:20.835Z,53.10
2022-07-27T19:28:48.965Z,53.10
2022-07-27T19:31:23.098Z,53.70
2022-07-27T19:33:53.997Z,53.10
2022-07-27T19:36:23.127Z,53.20
2022-07-27T19:38:51.644Z,53.20
2022-07-27T19:41:20.422Z,53.10
2022-07-27T19:43:48.734Z,53.20
2022-07-27T19:46:17.073Z,53.20
2022-07-27T19:48:45.410Z,53.20
2022-07-27T19:51:16.761Z,53.20
2022-07-27T19:53:44.972Z,53.10
2022-07-27T19:56:13.139Z,53.10
2022-07-27T19:58:41.398Z,53.10
2022-07-27T20:01:11.434Z,53.00
2022-07-27T20:03:54.929Z,53.10
2022-07-27T20:06:25.438Z,53.00
2022-07-27T20:08:56.063Z,53.10
2022-07-27T20:11:24.468Z,53.60
2022-07-27T20:13:52.724Z,53.10
2022-07-27T20:16:20.986Z,53.20
2022-07-27T20:18:49.394Z,53.10
2022-07-27T20:21:23.206Z,53.30
2022-07-27T20:23:54.491Z,53.20
2022-07-27T20:26:22.638Z,53.20
2022-07-27T20:28:50.921Z,53.20
2022-07-27T20:31:19.321Z,53.20
2022-07-27T20:33:47.555Z,53.20
2022-07-27T20:36:15.752Z,53.10
2022-07-27T20:38:43.877Z,53.10
2022-07-27T20:41:13.467Z,53.10
2022-07-27T20:43:41.583Z,53.10
2022-07-27T20:46:09.852Z,53.20
2022-07-27T20:48:39.602Z,53.10
2022-07-27T20:51:07.816Z,53.10
2022-07-27T20:53:35.923Z,53.10
2022-07-27T20:56:04.161Z,53.00
2022-07-27T20:58:34.647Z,52.90
2022-07-27T21:01:02.862Z,53.00
2022-07-27T21:03:32.181Z,52.90
2022-07-27T21:06:00.322Z,53.00
2022-07-27T21:08:28.691Z,53.00
2022-07-27T21:10:57.103Z,52.90
2022-07-27T21:13:25.434Z,52.90
2022-07-27T21:15:55.070Z,53.00
2022-07-27T21:18:23.280Z,52.90
2022-07-27T21:20:51.443Z,52.80
2022-07-27T21:23:37.296Z,52.90
2022-07-27T21:26:05.556Z,53.00
2022-07-27T21:28:33.699Z,53.10
2022-07-27T21:31:03.328Z,53.00
2022-07-27T21:33:34.888Z,53.10
2022-07-27T21:36:08.000Z,53.00
2022-07-27T21:38:36.204Z,53.00
2022-07-27T21:41:04.448Z,53.00
2022-07-27T21:43:33.481Z,53.00
2022-07-27T21:46:03.125Z,53.00
2022-07-27T21:48:31.551Z,53.00
2022-07-27T21:50:59.830Z,53.00
2022-07-27T21:53:28.004Z,53.00
2022-07-27T21:55:56.199Z,52.90
2022-07-27T21:58:24.757Z,52.90
2022-07-27T22:00:52.977Z,52.90
2022-07-27T22:03:22.544Z,53.60
2022-07-27T22:05:50.761Z,53.00
2022-07-27T22:08:18.926Z,53.00
2022-07-27T22:10:47.042Z,53.00
2022-07-27T22:13:15.223Z,53.00
2022-07-27T22:15:43.312Z,53.00
2022-07-27T22:18:11.426Z,53.00
2022-07-27T22:20:40.877Z,53.00
2022-07-27T22:23:09.112Z,53.00
2022-07-27T22:25:37.673Z,53.00
2022-07-27T22:28:06.621Z,53.00
2022-07-27T22:30:35.120Z,53.00
2022-07-27T22:33:03.517Z,53.00
2022-07-27T22:35:31.679Z,53.00
2022-07-27T22:38:04.222Z,52.90
2022-07-27T22:40:32.633Z,53.00
2022-07-27T22:43:00.768Z,53.00
2022-07-27T22:45:28.942Z,53.00
2022-07-27T22:47:59.971Z,52.90
2022-07-27T22:50:28.321Z,52.80
2022-07-27T22:52:57.598Z,52.80
2022-07-27T22:55:28.196Z,52.80
2022-07-27T22:57:56.367Z,52.80
2022-07-27T23:00:24.715Z,52.80
2022-07-27T23:02:52.835Z,52.80
2022-07-27T23:05:21.033Z,52.80
2022-07-27T23:07:49.201Z,52.90
2022-07-27T23:10:34.528Z,52.80
2022-07-27T23:13:04.099Z,52.90
2022-07-27T23:15:32.231Z,52.80
2022-07-27T23:18:00.356Z,52.80
2022-07-27T23:20:28.511Z,52.70
2022-07-27T23:22:56.673Z,52.80
2022-07-27T23:25:36.089Z,52.90
2022-07-27T23:28:06.621Z,52.80
2022-07-27T23:30:34.946Z,52.80
2022-07-27T23:33:03.193Z,52.80
2022-07-27T23:35:31.720Z,52.80
2022-07-27T23:38:00.315Z,52.80
2022-07-27T23:40:28.906Z,52.80
2022-07-27T23:42:57.074Z,52.80
2022-07-27T23:45:27.300Z,52.80
2022-07-27T23:47:55.563Z,52.80
2022-07-27T23:50:23.949Z,52.70
2022-07-27T23:52:52.360Z,52.80
2022-07-27T23:55:20.510Z,52.80
2022-07-27T23:57:48.695Z,53.40
